createdAt,value
2023-04-20T00:00:13.994Z,87937.53
2023-04-20T00:02:58.995Z,87931.09
2023-04-20T00:05:43.681Z,87926.78
2023-04-20T00:08:28.844Z,87924.31
2023-04-20T00:11:13.676Z,87918.78
2023-04-20T00:13:58.822Z,87921.72
2023-04-20T00:16:43.950Z,87918.75
2023-04-20T00:19:28.922Z,87911.78
2023-04-20T00:25:17.031Z,87901.53
2023-04-20T00:28:01.950Z,87903.97
2023-04-20T00:30:46.983Z,87907.06
2023-04-20T00:33:31.780Z,87893.25
2023-04-20T00:36:16.792Z,87893.75
2023-04-20T00:39:01.716Z,87893.53
2023-04-20T00:41:46.856Z,87891.38
2023-04-20T00:44:31.888Z,87887.59
2023-04-20T00:47:16.800Z,87887.16
2023-04-20T00:50:01.604Z,87877.09
2023-04-20T00:52:46.582Z,87875.88
2023-04-20T00:55:31.528Z,87872.38
2023-04-20T00:58:16.497Z,87881.97
2023-04-20T01:01:01.661Z,87874.69
2023-04-20T01:03:46.919Z,87868.03
2023-04-20T01:06:32.218Z,87865.06
2023-04-20T01:09:17.371Z,87866.47
2023-04-20T01:12:02.247Z,87865.25
2023-04-20T01:14:47.124Z,87853.50
2023-04-20T01:17:32.117Z,87854.00
2023-04-20T01:20:17.203Z,87849.31
2023-04-20T01:23:02.265Z,87850.19
2023-04-20T01:25:47.289Z,87848.06
2023-04-20T01:28:32.267Z,87846.16
2023-04-20T01:31:17.367Z,87833.31
2023-04-20T01:34:02.142Z,87838.50
2023-04-20T01:36:47.111Z,87830.38
2023-04-20T01:39:32.055Z,87838.38
2023-04-20T01:42:16.890Z,87830.22
2023-04-20T01:45:02.078Z,87830.69
2023-04-20T01:47:47.111Z,87829.59
2023-04-20T01:50:32.191Z,87823.88
2023-04-20T01:53:17.110Z,87821.63
2023-04-20T01:56:02.040Z,87817.25
2023-04-20T01:58:47.047Z,87820.84
2023-04-20T02:01:32.012Z,87816.47
2023-04-20T02:04:17.195Z,87818.19
2023-04-20T02:07:02.130Z,87816.59
2023-04-20T02:09:47.287Z,87805.72
2023-04-20T02:12:32.191Z,87804.19
2023-04-20T02:15:17.231Z,87804.47
2023-04-20T02:18:02.295Z,87806.94
2023-04-20T02:20:47.267Z,87796.38
2023-04-20T02:23:32.254Z,87796.47
2023-04-20T02:26:17.195Z,87797.47
2023-04-20T02:29:02.230Z,87796.44
2023-04-20T02:31:47.264Z,87795.09
2023-04-20T02:34:32.446Z,87789.00
2023-04-20T02:37:17.397Z,87788.06
2023-04-20T02:40:02.455Z,87785.09
2023-04-20T02:42:47.417Z,87777.94
2023-04-20T02:45:32.368Z,87785.41
2023-04-20T02:48:17.422Z,87784.03
2023-04-20T02:51:02.369Z,87788.53
2023-04-20T02:53:47.358Z,87782.66
2023-04-20T02:56:32.327Z,87785.81
2023-04-20T02:59:17.662Z,87777.19
2023-04-20T03:02:02.837Z,87783.53
2023-04-20T03:04:47.933Z,87776.66
2023-04-20T03:07:32.774Z,87772.69
2023-04-20T03:10:17.859Z,87769.56
2023-04-20T03:13:02.845Z,87773.03
2023-04-20T03:15:47.718Z,87772.72
2023-04-20T03:18:32.785Z,87773.41
2023-04-20T03:21:17.648Z,87773.56
2023-04-20T03:24:02.789Z,87764.88
2023-04-20T03:26:47.635Z,87756.88
2023-04-20T03:29:32.644Z,87761.88
2023-04-20T03:32:17.661Z,87759.81
2023-04-20T03:35:02.616Z,87765.06
2023-04-20T03:37:47.695Z,87759.56
2023-04-20T03:40:32.643Z,87756.88
2023-04-20T03:43:17.816Z,87752.91
2023-04-20T03:46:02.768Z,87750.16
2023-04-20T03:48:47.654Z,87753.53
2023-04-20T03:51:32.721Z,87757.81
2023-04-20T03:54:17.777Z,87749.34
2023-04-20T03:57:02.916Z,87751.38
2023-04-20T03:59:47.900Z,87747.06
2023-04-20T04:02:33.149Z,87742.59
2023-04-20T04:05:18.417Z,87743.63
2023-04-20T04:08:03.414Z,87738.31
2023-04-20T04:10:48.314Z,87741.38
2023-04-20T04:13:34.642Z,87745.31
2023-04-20T04:16:19.813Z,87742.34
2023-04-20T04:19:04.611Z,87736.19
2023-04-20T04:21:49.743Z,87728.09
2023-04-20T04:24:34.704Z,87731.38
2023-04-20T04:27:19.779Z,87735.88
2023-04-20T04:30:04.633Z,87733.78
2023-04-20T04:32:49.611Z,87731.16
2023-04-20T04:35:34.615Z,87737.06
2023-04-20T04:38:19.590Z,87729.06
2023-04-20T04:41:04.637Z,87737.91
2023-04-20T04:43:49.574Z,87734.25
2023-04-20T04:46:34.869Z,87738.94
2023-04-20T04:49:19.871Z,87731.34
2023-04-20T04:52:04.740Z,87736.19
2023-04-20T04:54:49.704Z,87743.91
2023-04-20T04:57:34.812Z,87731.28
2023-04-20T05:00:19.792Z,87735.75
2023-04-20T05:03:04.851Z,87736.78
2023-04-20T05:05:49.897Z,87732.16
2023-04-20T05:08:34.776Z,87737.34
2023-04-20T05:11:19.753Z,87735.28
2023-04-20T05:14:04.690Z,87730.81
2023-04-20T05:16:49.788Z,87729.44
2023-04-20T05:19:34.707Z,87735.75
2023-04-20T05:22:19.807Z,87734.56
2023-04-20T05:25:04.771Z,87739.94
2023-04-20T05:27:49.691Z,87733.03
2023-04-20T05:30:34.803Z,87737.50
2023-04-20T05:33:19.785Z,87737.38
2023-04-20T05:36:04.974Z,87734.78
2023-04-20T05:38:50.049Z,87736.56
2023-04-20T05:41:34.967Z,87738.31
2023-04-20T05:44:20.110Z,87738.31
2023-04-20T05:47:04.952Z,87735.06
2023-04-20T05:49:50.078Z,87729.66
2023-04-20T05:52:35.066Z,87731.25
2023-04-20T05:55:22.199Z,87728.50
2023-04-20T05:58:07.653Z,87723.31
2023-04-20T06:00:52.724Z,87724.72
2023-04-20T06:03:37.838Z,87722.63
2023-04-20T06:06:22.688Z,87728.38
2023-04-20T06:09:07.854Z,87725.59
2023-04-20T06:11:52.641Z,87726.16
2023-04-20T06:14:37.706Z,87720.25
2023-04-20T06:17:22.879Z,87727.53
2023-04-20T06:20:07.946Z,87729.63
2023-04-20T06:22:52.950Z,87725.41
2023-04-20T06:25:37.908Z,87729.59
2023-04-20T06:28:22.925Z,87723.38
2023-04-20T06:31:07.926Z,87733.34
2023-04-20T06:33:53.057Z,87729.84
2023-04-20T06:36:37.984Z,87735.69
2023-04-20T06:39:23.059Z,87749.06
2023-04-20T06:42:08.010Z,87732.13
2023-04-20T06:44:52.937Z,87736.16
2023-04-20T06:47:37.897Z,87726.63
2023-04-20T06:50:22.661Z,87730.63
2023-04-20T06:53:07.687Z,87727.50
2023-04-20T06:55:52.487Z,87720.72
2023-04-20T06:58:37.567Z,87721.72
2023-04-20T07:01:22.577Z,87717.41
2023-04-20T07:04:07.811Z,87719.00
2023-04-20T07:06:54.363Z,87728.06
2023-04-20T07:09:39.554Z,87725.81
2023-04-20T07:12:24.548Z,87720.97
2023-04-20T07:15:09.482Z,87725.97
2023-04-20T07:17:54.653Z,87730.66
2023-04-20T07:20:39.486Z,87721.84
2023-04-20T07:23:24.598Z,87716.28
2023-04-20T07:26:09.377Z,87728.94
2023-04-20T07:28:54.323Z,87716.44
2023-04-20T07:31:39.307Z,87712.44
2023-04-20T07:34:24.078Z,87711.41
2023-04-20T07:37:09.288Z,87715.00
2023-04-20T07:39:54.278Z,87710.88
2023-04-20T07:42:39.426Z,87705.34
2023-04-20T07:45:24.442Z,87697.38
2023-04-20T07:48:09.297Z,87702.53
2023-04-20T07:50:54.194Z,87698.09
2023-04-20T07:53:39.080Z,87695.97
2023-04-20T07:56:24.114Z,87695.97
2023-04-20T07:59:09.075Z,87697.34
2023-04-20T08:01:56.286Z,87688.78
2023-04-20T08:04:41.341Z,87690.66
2023-04-20T08:07:26.559Z,87694.31
2023-04-20T08:10:11.529Z,87688.00
2023-04-20T08:12:56.500Z,87689.25
2023-04-20T08:15:41.774Z,87684.66
2023-04-20T08:18:26.551Z,87681.50
2023-04-20T08:21:11.767Z,87678.00
2023-04-20T08:23:56.751Z,87677.63
2023-04-20T08:26:41.695Z,87678.44
2023-04-20T08:29:26.641Z,87679.53
2023-04-20T08:32:11.583Z,87672.84
2023-04-20T08:34:56.797Z,87669.63
2023-04-20T08:37:41.795Z,87665.34
2023-04-20T08:40:26.849Z,87662.22
2023-04-20T08:43:11.749Z,87661.44
2023-04-20T08:45:56.808Z,87649.63
2023-04-20T08:48:41.781Z,87647.47
2023-04-20T08:51:26.817Z,87646.00
2023-04-20T08:54:12.010Z,87646.13
2023-04-20T08:56:57.035Z,87656.03
2023-04-20T08:59:42.190Z,87651.41
2023-04-20T09:02:27.358Z,87645.66
2023-04-20T09:05:12.382Z,87638.28
2023-04-20T09:07:57.152Z,87636.69
2023-04-20T09:10:42.275Z,87644.31
2023-04-20T09:13:27.359Z,87646.22
2023-04-20T09:16:12.569Z,87639.72
2023-04-20T09:18:57.591Z,87641.16
2023-04-20T09:21:42.522Z,87650.06
2023-04-20T09:24:27.620Z,87653.50
2023-04-20T09:27:12.579Z,87655.56
2023-04-20T09:29:57.787Z,87653.22
2023-04-20T09:32:42.682Z,87655.75
2023-04-20T09:35:27.579Z,87658.03
2023-04-20T09:38:12.618Z,87661.78
2023-04-20T09:40:57.463Z,87665.91
2023-04-20T09:43:42.495Z,87668.22
2023-04-20T09:46:27.493Z,87663.69
2023-04-20T09:49:12.485Z,87669.22
2023-04-20T09:51:57.398Z,87670.72
2023-04-20T09:54:42.452Z,87666.13
2023-04-20T09:57:27.591Z,87668.03
2023-04-20T10:00:12.667Z,87674.63
2023-04-20T10:02:57.862Z,87680.56
2023-04-20T10:05:42.685Z,87672.94
2023-04-20T10:08:27.900Z,87680.03
2023-04-20T10:11:12.881Z,87678.16
2023-04-20T10:13:57.948Z,87680.41
2023-04-20T10:16:42.948Z,87683.34
2023-04-20T10:19:27.766Z,87683.00
2023-04-20T10:22:12.855Z,87684.75
2023-04-20T10:24:57.727Z,87681.44
2023-04-20T10:27:42.862Z,87683.16
2023-04-20T10:30:27.765Z,87676.22
2023-04-20T10:33:13.194Z,87687.09
2023-04-20T10:35:58.327Z,87685.94
2023-04-20T10:38:43.369Z,87686.25
2023-04-20T10:41:28.469Z,87698.00
2023-04-20T10:44:13.447Z,87695.94
2023-04-20T10:46:58.471Z,87695.22
2023-04-20T10:49:43.321Z,87690.50
2023-04-20T10:52:28.312Z,87698.28
2023-04-20T10:55:13.089Z,87696.41
2023-04-20T10:57:58.237Z,87705.66
2023-04-20T11:00:43.078Z,87694.59
2023-04-20T11:03:28.227Z,87702.06
2023-04-20T11:06:13.223Z,87691.34
2023-04-20T11:08:58.072Z,87692.06
2023-04-20T11:11:43.289Z,87688.28
2023-04-20T11:14:28.196Z,87689.84
2023-04-20T11:17:13.223Z,87684.84
2023-04-20T11:19:58.699Z,87690.91
2023-04-20T11:22:43.842Z,87687.94
2023-04-20T11:25:28.782Z,87681.16
2023-04-20T11:28:13.793Z,87677.91
2023-04-20T11:30:58.840Z,87682.94
2023-04-20T11:33:43.723Z,87678.97
2023-04-20T11:36:28.716Z,87675.16
2023-04-20T11:39:13.646Z,87672.56
2023-04-20T11:41:58.676Z,87671.91
2023-04-20T11:44:43.651Z,87667.91
2023-04-20T11:47:28.677Z,87668.78
2023-04-20T11:50:13.647Z,87673.25
2023-04-20T11:52:58.537Z,87676.88
2023-04-20T11:55:43.757Z,87668.94
2023-04-20T11:58:28.573Z,87672.59
2023-04-20T12:01:13.647Z,87665.16
2023-04-20T12:03:58.860Z,87679.34
2023-04-20T12:06:44.148Z,87676.00
2023-04-20T12:09:29.123Z,87674.97
2023-04-20T12:12:14.064Z,87679.78
2023-04-20T12:14:59.185Z,87682.84
2023-04-20T12:17:44.328Z,87691.22
2023-04-20T12:20:29.285Z,87686.13
2023-04-20T12:23:14.234Z,87678.53
2023-04-20T12:25:59.229Z,87683.94
2023-04-20T12:28:44.249Z,87681.13
2023-04-20T12:31:29.385Z,87683.69
2023-04-20T12:34:14.472Z,87681.41
2023-04-20T12:36:59.346Z,87679.16
2023-04-20T12:39:44.421Z,87687.69
2023-04-20T12:42:29.398Z,87690.09
2023-04-20T12:45:14.575Z,87685.66
2023-04-20T12:48:00.601Z,87691.94
2023-04-20T12:50:45.825Z,87682.94
2023-04-20T12:53:30.716Z,87689.19
2023-04-20T12:56:15.545Z,87688.34
2023-04-20T12:59:00.725Z,87696.81
2023-04-20T13:01:45.636Z,87698.78
2023-04-20T13:04:30.783Z,87695.66
2023-04-20T13:07:15.633Z,87707.28
2023-04-20T13:10:00.826Z,87706.91
2023-04-20T13:12:46.679Z,87714.88
2023-04-20T13:15:38.959Z,87712.78
2023-04-20T13:18:24.406Z,87711.94
2023-04-20T13:21:09.549Z,87720.41
2023-04-20T13:23:56.216Z,87729.94
2023-04-20T13:26:41.525Z,87735.00
2023-04-20T13:29:26.570Z,87729.09
2023-04-20T13:32:11.515Z,87732.38
2023-04-20T13:34:56.619Z,87742.13
2023-04-20T13:37:41.663Z,87747.25
2023-04-20T13:40:26.678Z,87750.72
2023-04-20T13:43:11.628Z,87754.53
2023-04-20T13:45:56.657Z,87763.00
2023-04-20T13:48:41.586Z,87771.75
2023-04-20T13:51:26.689Z,87767.06
2023-04-20T13:54:11.585Z,87777.09
2023-04-20T13:56:56.668Z,87771.72
2023-04-20T13:59:41.668Z,87774.34
2023-04-20T14:02:26.742Z,87772.66
2023-04-20T14:05:11.759Z,87784.13
2023-04-20T14:07:56.679Z,87788.44
2023-04-20T14:10:41.683Z,87775.31
2023-04-20T14:13:26.708Z,87781.38
2023-04-20T14:16:11.875Z,87780.53
2023-04-20T14:18:56.878Z,87777.91
2023-04-20T14:21:41.876Z,87782.28
2023-04-20T14:24:26.930Z,87784.00
2023-04-20T14:27:11.933Z,87784.66
2023-04-20T14:29:56.896Z,87782.97
2023-04-20T14:32:41.937Z,87792.69
2023-04-20T14:35:26.900Z,87797.41
2023-04-20T14:38:11.956Z,87796.69
2023-04-20T14:40:56.999Z,87800.00
2023-04-20T14:43:42.202Z,87806.91
2023-04-20T14:46:27.359Z,87812.84
2023-04-20T14:49:12.338Z,87807.44
2023-04-20T14:51:57.236Z,87807.28
2023-04-20T14:54:42.345Z,87807.44
2023-04-20T14:57:27.390Z,87810.41
2023-04-20T15:00:12.396Z,87798.44
2023-04-20T15:02:57.858Z,87801.22
2023-04-20T15:05:43.151Z,87805.03
2023-04-20T15:08:28.141Z,87795.66
2023-04-20T15:11:13.051Z,87798.28
2023-04-20T15:13:58.121Z,87783.88
2023-04-20T15:16:43.085Z,87784.75
2023-04-20T15:19:27.944Z,87781.94
2023-04-20T15:22:13.074Z,87782.03
2023-04-20T15:24:58.012Z,87786.81
2023-04-20T15:27:43.068Z,87787.22
2023-04-20T15:30:27.851Z,87785.44
2023-04-20T15:33:12.932Z,87781.34
2023-04-20T15:35:57.646Z,87785.56
2023-04-20T15:38:42.595Z,87783.75
2023-04-20T15:41:27.434Z,87779.66
2023-04-20T15:44:12.542Z,87785.19
2023-04-20T15:46:57.674Z,87777.84
2023-04-20T15:49:42.688Z,87776.66
2023-04-20T15:52:27.751Z,87775.91
2023-04-20T15:55:12.628Z,87782.50
2023-04-20T15:57:57.629Z,87783.41
2023-04-20T16:00:42.578Z,87781.69
2023-04-20T16:03:27.787Z,87780.44
2023-04-20T16:06:12.525Z,87783.94
2023-04-20T16:08:57.362Z,87787.59
2023-04-20T16:11:42.549Z,87776.19
2023-04-20T16:14:27.364Z,87773.59
2023-04-20T16:17:12.497Z,87782.28
2023-04-20T16:19:57.581Z,87776.94
2023-04-20T16:22:42.695Z,87779.53
2023-04-20T16:25:27.602Z,87782.31
2023-04-20T16:28:12.641Z,87768.75
2023-04-20T16:30:57.636Z,87777.59
2023-04-20T16:33:43.045Z,87774.84
2023-04-20T16:36:28.079Z,87773.09
2023-04-20T16:39:13.134Z,87780.94
2023-04-20T16:41:58.234Z,87768.59
2023-04-20T16:44:43.393Z,87767.38
2023-04-20T16:47:28.661Z,87771.56
2023-04-20T16:50:13.620Z,87775.22
2023-04-20T16:52:58.536Z,87775.38
2023-04-20T16:55:43.495Z,87773.13
2023-04-20T16:58:28.507Z,87778.13
2023-04-20T17:01:13.567Z,87763.16
2023-04-20T17:03:58.572Z,87758.31
2023-04-20T17:06:43.478Z,87764.53
2023-04-20T17:09:28.214Z,87759.81
2023-04-20T17:12:13.413Z,87773.59
2023-04-20T17:14:58.507Z,87776.50
2023-04-20T17:17:43.458Z,87771.91
2023-04-20T17:20:28.534Z,87785.50
2023-04-20T17:23:13.469Z,87790.00
2023-04-20T17:25:58.421Z,87784.25
2023-04-20T17:28:43.452Z,87788.22
2023-04-20T17:31:28.584Z,87785.28
2023-04-20T17:34:13.584Z,87790.47
2023-04-20T17:36:58.790Z,87806.72
2023-04-20T17:39:43.846Z,87799.50
2023-04-20T17:42:28.758Z,87800.88
2023-04-20T17:45:13.926Z,87803.66
2023-04-20T17:47:58.906Z,87804.19
2023-04-20T17:50:43.787Z,87807.09
2023-04-20T17:53:28.852Z,87808.66
2023-04-20T17:56:13.843Z,87816.44
2023-04-20T17:58:58.829Z,87821.78
2023-04-20T18:01:43.782Z,87826.22
2023-04-20T18:04:29.059Z,87816.16
2023-04-20T18:07:14.309Z,87823.06
2023-04-20T18:09:59.387Z,87827.75
2023-04-20T18:12:44.296Z,87827.28
2023-04-20T18:15:29.466Z,87828.56
2023-04-20T18:18:14.224Z,87821.09
2023-04-20T18:20:59.331Z,87823.16
2023-04-20T18:23:44.404Z,87824.06
2023-04-20T18:26:29.267Z,87825.31
2023-04-20T18:29:14.441Z,87825.53
2023-04-20T18:31:59.516Z,87827.28
2023-04-20T18:34:44.557Z,87825.75
2023-04-20T18:37:29.520Z,87825.06
2023-04-20T18:40:16.215Z,87826.91
2023-04-20T18:43:01.784Z,87823.28
2023-04-20T18:45:46.721Z,87815.44
2023-04-20T18:48:31.825Z,87824.28
2023-04-20T18:51:16.661Z,87816.28
2023-04-20T18:54:01.680Z,87824.88
2023-04-20T18:56:46.583Z,87822.09
2023-04-20T18:59:31.696Z,87827.66
2023-04-20T19:02:16.849Z,87834.22
2023-04-20T19:05:01.582Z,87826.81
2023-04-20T19:07:46.741Z,87834.94
2023-04-20T19:10:31.575Z,87840.59
2023-04-20T19:13:16.768Z,87836.75
2023-04-20T19:16:01.714Z,87845.34
2023-04-20T19:18:46.658Z,87844.66
2023-04-20T19:21:31.806Z,87836.16
2023-04-20T19:24:17.049Z,87849.81
2023-04-20T19:27:02.431Z,87844.44
2023-04-20T19:29:47.261Z,87846.03
2023-04-20T19:32:32.458Z,87848.50
2023-04-20T19:35:17.408Z,87844.25
2023-04-20T19:38:02.515Z,87837.53
2023-04-20T19:40:47.435Z,87840.69
2023-04-20T19:43:32.552Z,87842.78
2023-04-20T19:46:17.611Z,87838.28
2023-04-20T19:49:02.543Z,87839.78
2023-04-20T19:51:47.716Z,87845.31
2023-04-20T19:54:32.522Z,87857.00
2023-04-20T19:57:17.528Z,87861.66
2023-04-20T20:00:02.476Z,87860.16
2023-04-20T20:02:47.707Z,87863.06
2023-04-20T20:05:32.579Z,87861.97
2023-04-20T20:08:17.605Z,87859.44
2023-04-20T20:11:02.630Z,87855.78
2023-04-20T20:13:47.641Z,87866.25
2023-04-20T20:16:32.925Z,87866.53
2023-04-20T20:19:18.045Z,87864.19
2023-04-20T20:22:03.334Z,87868.41
2023-04-20T20:24:48.258Z,87866.78
2023-04-20T20:27:33.342Z,87864.06
2023-04-20T20:30:18.447Z,87854.25
2023-04-20T20:33:03.418Z,87854.06
2023-04-20T20:35:48.497Z,87845.44
2023-04-20T20:38:33.392Z,87860.81
2023-04-20T20:41:18.402Z,87867.13
2023-04-20T20:44:03.442Z,87862.16
2023-04-20T20:46:48.412Z,87861.47
2023-04-20T20:49:33.352Z,87864.06
2023-04-20T20:52:18.232Z,87868.50
2023-04-20T20:55:03.388Z,87866.59
2023-04-20T20:57:48.323Z,87877.41
2023-04-20T21:00:33.482Z,87883.50
2023-04-20T21:03:18.446Z,87890.75
2023-04-20T21:06:03.471Z,87887.66
2023-04-20T21:08:48.377Z,87887.47
2023-04-20T21:11:33.479Z,87892.84
2023-04-20T21:14:18.685Z,87905.28
2023-04-20T21:17:03.700Z,87900.22
2023-04-20T21:19:48.749Z,87899.22
2023-04-20T21:22:33.535Z,87898.22
2023-04-20T21:25:18.701Z,87890.13
2023-04-20T21:28:03.580Z,87894.16
2023-04-20T21:30:48.588Z,87902.53
2023-04-20T21:33:33.615Z,87898.34
2023-04-20T21:36:18.491Z,87900.75
2023-04-20T21:39:03.687Z,87896.94
2023-04-20T21:41:48.654Z,87896.06
2023-04-20T21:44:33.754Z,87892.38
2023-04-20T21:47:18.758Z,87891.38
2023-04-20T21:50:03.672Z,87888.66
2023-04-20T21:52:48.672Z,87878.59
2023-04-20T21:55:33.750Z,87876.00
2023-04-20T21:58:18.800Z,87872.72
2023-04-20T22:01:03.788Z,87867.66
2023-04-20T22:03:49.057Z,87860.53
2023-04-20T22:06:33.806Z,87870.94
2023-04-20T22:09:19.076Z,87881.75
2023-04-20T22:12:03.810Z,87878.94
2023-04-20T22:14:48.832Z,87881.16
2023-04-20T22:17:33.845Z,87892.94
2023-04-20T22:20:18.916Z,87891.72
2023-04-20T22:23:04.020Z,87898.50
2023-04-20T22:25:48.882Z,87900.78
2023-04-20T22:28:34.068Z,87897.19
2023-04-20T22:31:18.999Z,87911.41
2023-04-20T22:34:04.078Z,87910.28
2023-04-20T22:36:49.094Z,87902.88
2023-04-20T22:39:34.216Z,87907.56
2023-04-20T22:42:19.186Z,87904.72
2023-04-20T22:45:04.138Z,87905.94
2023-04-20T22:47:49.397Z,87897.63
2023-04-20T22:50:34.190Z,87904.03
2023-04-20T22:53:19.243Z,87905.28
2023-04-20T22:56:04.106Z,87902.31
2023-04-20T22:58:49.146Z,87898.66
2023-04-20T23:01:34.041Z,87899.16
2023-04-20T23:04:19.162Z,87893.59
2023-04-20T23:07:04.191Z,87897.88
2023-04-20T23:09:49.237Z,87887.53
2023-04-20T23:12:34.418Z,87883.66
2023-04-20T23:15:19.306Z,87882.06
2023-04-20T23:18:04.393Z,87885.88
2023-04-20T23:20:49.232Z,87882.69
2023-04-20T23:23:34.293Z,87881.81
2023-04-20T23:26:19.366Z,87878.53
2023-04-20T23:29:04.359Z,87880.75
2023-04-20T23:31:49.535Z,87879.53
2023-04-20T23:34:34.376Z,87881.84
2023-04-20T23:37:19.385Z,87878.19
2023-04-20T23:40:04.372Z,87891.22
2023-04-20T23:42:49.393Z,87881.13
2023-04-20T23:45:34.377Z,87871.00
2023-04-20T23:48:19.304Z,87877.78
2023-04-20T23:51:04.328Z,87870.91
2023-04-20T23:53:49.289Z,87872.66
2023-04-20T23:56:34.328Z,87871.06
2023-04-20T23:59:19.423Z,87871.28
